Time;durP1;ratioP1;P1;durP2;ratioP2;P2;SDS_P1;SDS_P2;PMS_P1;PMS_P2;Temp;Humidity;BMP_temperature;BMP_pressure;BME280_temperature;BME280_humidity;BME280_pressure;Samples;Min_cycle;Max_cycle;Signal;HPM_P1;HPM_P2
2022/08/10 00:00:48;;;;;;;;;;;;;;;;;;5096255;28;20312;-86
2022/08/10 00:03:13;;;;;;;;;;;;;;;;;;5101021;28;19966;-85
2022/08/10 00:05:38;;;;;;;;;;;;;;;;;;5102032;28;19920;-88
2022/08/10 00:08:04;;;;;;;;;;;;;;;;;;5113207;28;19916;-87
2022/08/10 00:10:29;;;;;;;;;;;;;;;;;;5097138;28;19939;-87
2022/08/10 00:12:54;;;;;;;;;;;;;;;;;;5097325;28;19916;-87
2022/08/10 00:15:20;;;;;;;;;;;;;;;;;;5097277;28;19923;-90
2022/08/10 00:17:45;;;;;;;;;;;;;;;;;;5103849;28;19923;-89
2022/08/10 00:20:11;;;;;;;;;;;;;;;;;;5112491;28;19916;-87
2022/08/10 00:22:36;;;;;;;;;;;;;;;;;;5110753;28;19926;-88
2022/08/10 00:25:02;;;;;;;;;;;;;;;;;;5110011;28;19980;-87
2022/08/10 00:27:27;;;;;;;;;;;;;;;;;;5098333;28;20002;-85
2022/08/10 00:29:53;;;;;;;;;;;;;;;;;;5097276;28;19916;-87
2022/08/10 00:32:18;;;;;;;;;;;;;;;;;;5097105;28;19923;-87
2022/08/10 00:34:44;;;;;;;;;;;;;;;;;;5096979;28;19916;-86
2022/08/10 00:37:10;;;;;;;;;;;;;;;;;;5112442;28;19965;-89
2022/08/10 00:39:35;;;;;;;;;;;;;;;;;;5095641;28;19916;-86
2022/08/10 00:42:00;;;;;;;;;;;;;;;;;;5095434;28;19945;-86
2022/08/10 00:44:25;;;;;;;;;;;;;;;;;;5100285;28;19924;-86
2022/08/10 00:46:51;;;;;;;;;;;;;;;;;;5102553;28;19999;-86
2022/08/10 00:49:16;;;;;;;;;;;;;;;;;;5096776;28;19916;-87
2022/08/10 00:51:41;;;;;;;;;;;;;;;;;;5112293;28;19916;-85
2022/08/10 00:54:07;;;;;;;;;;;;;;;;;;5111783;28;19924;-86
2022/08/10 00:56:33;;;;;;;;;;;;;;;;;;5096506;28;19920;-87
2022/08/10 00:58:58;;;;;;;;;;;;;;;;;;5096115;28;19916;-87
2022/08/10 01:01:23;;;;;;;;;;;;;;;;;;5096376;28;20307;-88
2022/08/10 01:03:49;;;;;;;;;;;;;;;;;;5112146;28;19955;-87
2022/08/10 01:06:20;;;;;;;;;;;;;;;;;;5120071;28;19966;-86
2022/08/10 01:08:48;;;;;;;;;;;;;;;;;;5094992;28;19916;-86
2022/08/10 01:11:14;;;;;;;;;;;;;;;;;;5095912;28;19945;-86
2022/08/10 01:13:45;;;;;;;;;;;;;;;;;;5094814;28;20300;-87
2022/08/10 01:16:14;;;;;;;;;;;;;;;;;;5095889;28;19916;-87
2022/08/10 01:18:52;;;;;;;;;;;;;;;;;;5111754;28;19974;-88
2022/08/10 01:21:57;;;;;;;;;;;;;;;;;;5095963;28;19919;-87
2022/08/10 01:24:34;;;;;;;;;;;;;;;;;;5096509;28;19923;-87
2022/08/10 01:27:08;;;;;;;;;;;;;;;;;;5105151;28;19924;-89
2022/08/10 01:29:53;;;;;;;;;;;;;;;;;;5098842;28;19913;-88
2022/08/10 01:32:23;;;;;;;;;;;;;;;;;;5111573;28;19920;-88
2022/08/10 01:34:49;;;;;;;;;;;;;;;;;;5111520;28;20305;-89
2022/08/10 01:37:16;;;;;;;;;;;;;;;;;;5110966;28;19931;-88
2022/08/10 01:39:42;;;;;;;;;;;;;;;;;;5094146;28;20326;-87
2022/08/10 01:42:09;;;;;;;;;;;;;;;;;;5111212;28;19916;-88
2022/08/10 01:44:35;;;;;;;;;;;;;;;;;;5111365;28;19920;-87
2022/08/10 01:48:27;;;;;;;;;;;;;;;;;;5115922;28;19920;-86
2022/08/10 01:49:46;;;;;;;;;;;;;;;;;;5110099;28;19923;-86
2022/08/10 01:52:12;;;;;;;;;;;;;;;;;;5093583;28;19916;-88
2022/08/10 01:54:37;;;;;;;;;;;;;;;;;;5110970;28;20005;-87
2022/08/10 01:57:02;;;;;;;;;;;;;;;;;;5093900;28;19916;-86
2022/08/10 01:59:35;;;;;;;;;;;;;;;;;;5111079;28;19923;-86
2022/08/10 02:02:05;;;;;;;;;;;;;;;;;;5111063;28;19919;-86
2022/08/10 02:04:31;;;;;;;;;;;;;;;;;;5111259;28;20347;-87
2022/08/10 02:06:56;;;;;;;;;;;;;;;;;;5111799;28;19997;-88
2022/08/10 02:09:25;;;;;;;;;;;;;;;;;;5118248;28;20266;-86
2022/08/10 02:11:51;;;;;;;;;;;;;;;;;;5110653;28;19916;-86
2022/08/10 02:14:16;;;;;;;;;;;;;;;;;;5093669;28;19919;-86
2022/08/10 02:16:42;;;;;;;;;;;;;;;;;;5110703;28;20280;-86
2022/08/10 02:19:08;;;;;;;;;;;;;;;;;;5095068;28;19916;-86
2022/08/10 02:21:33;;;;;;;;;;;;;;;;;;5094842;28;19920;-86
2022/08/10 02:23:59;;;;;;;;;;;;;;;;;;5095070;28;19916;-87
2022/08/10 02:26:24;;;;;;;;;;;;;;;;;;5110772;28;19916;-88
2022/08/10 02:28:50;;;;;;;;;;;;;;;;;;5110860;28;19939;-88
2022/08/10 02:31:15;;;;;;;;;;;;;;;;;;5095477;28;19923;-86
2022/08/10 02:33:41;;;;;;;;;;;;;;;;;;5110987;28;19916;-87
2022/08/10 02:36:07;;;;;;;;;;;;;;;;;;5110360;28;19923;-86
2022/08/10 02:38:44;;;;;;;;;;;;;;;;;;5094854;28;20262;-86
2022/08/10 02:41:14;;;;;;;;;;;;;;;;;;5110661;28;19916;-88
2022/08/10 02:43:48;;;;;;;;;;;;;;;;;;5110976;28;19924;-87
2022/08/10 02:46:15;;;;;;;;;;;;;;;;;;5112830;28;19920;-87
2022/08/10 02:48:44;;;;;;;;;;;;;;;;;;5099754;28;19916;-88
2022/08/10 02:51:14;;;;;;;;;;;;;;;;;;5106936;28;19979;-86
2022/08/10 02:53:40;;;;;;;;;;;;;;;;;;5114853;28;19916;-86
2022/08/10 02:56:07;;;;;;;;;;;;;;;;;;5114288;28;19942;-87
2022/08/10 02:58:34;;;;;;;;;;;;;;;;;;5114287;28;19922;-86
2022/08/10 03:01:00;;;;;;;;;;;;;;;;;;5114094;28;19917;-86
2022/08/10 03:03:28;;;;;;;;;;;;;;;;;;5098279;28;20380;-87
2022/08/10 03:05:59;;;;;;;;;;;;;;;;;;5114310;28;20003;-88
2022/08/10 03:08:26;;;;;;;;;;;;;;;;;;5097442;28;19916;-89
2022/08/10 03:10:52;;;;;;;;;;;;;;;;;;5126873;28;19919;-88
2022/08/10 03:13:17;;;;;;;;;;;;;;;;;;5101323;28;20006;-87
2022/08/10 03:15:42;;;;;;;;;;;;;;;;;;5114387;28;20287;-86
2022/08/10 03:18:07;;;;;;;;;;;;;;;;;;5114142;28;19916;-86
2022/08/10 03:20:36;;;;;;;;;;;;;;;;;;5097001;28;20235;-87
2022/08/10 03:23:04;;;;;;;;;;;;;;;;;;5114001;28;19923;-86
2022/08/10 03:25:29;;;;;;;;;;;;;;;;;;5113976;28;19967;-87
2022/08/10 03:27:54;;;;;;;;;;;;;;;;;;5096622;28;19912;-87
2022/08/10 03:30:20;;;;;;;;;;;;;;;;;;5100152;28;19904;-87
2022/08/10 03:32:45;;;;;;;;;;;;;;;;;;5125112;28;20369;-87
2022/08/10 03:35:10;;;;;;;;;;;;;;;;;;5096886;28;20311;-87
2022/08/10 03:37:36;;;;;;;;;;;;;;;;;;5097667;28;19916;-88
2022/08/10 03:40:01;;;;;;;;;;;;;;;;;;5097893;28;19924;-88
2022/08/10 03:42:26;;;;;;;;;;;;;;;;;;5113650;28;20007;-88
2022/08/10 03:44:52;;;;;;;;;;;;;;;;;;5096074;28;19927;-87
2022/08/10 03:47:18;;;;;;;;;;;;;;;;;;5113508;28;19920;-88
2022/08/10 03:49:43;;;;;;;;;;;;;;;;;;5096495;28;20328;-87
2022/08/10 03:52:09;;;;;;;;;;;;;;;;;;5120264;28;19939;-87
2022/08/10 03:54:34;;;;;;;;;;;;;;;;;;5098060;28;19951;-87
2022/08/10 03:56:59;;;;;;;;;;;;;;;;;;5112123;28;19916;-88
2022/08/10 03:59:25;;;;;;;;;;;;;;;;;;5113129;28;20003;-88
2022/08/10 04:01:51;;;;;;;;;;;;;;;;;;5113137;28;20278;-88
2022/08/10 04:04:16;;;;;;;;;;;;;;;;;;5113055;28;20344;-87
2022/08/10 04:06:42;;;;;;;;;;;;;;;;;;5113300;28;20302;-87
2022/08/10 04:09:08;;;;;;;;;;;;;;;;;;5097448;28;20014;-87
2022/08/10 04:11:33;;;;;;;;;;;;;;;;;;5113162;28;19955;-88
2022/08/10 04:13:58;;;;;;;;;;;;;;;;;;5099446;28;19923;-91
2022/08/10 04:16:24;;;;;;;;;;;;;;;;;;5096981;28;20393;-87
2022/08/10 04:18:49;;;;;;;;;;;;;;;;;;5095943;28;20026;-86
2022/08/10 04:21:16;;;;;;;;;;;;;;;;;;5097195;28;19922;-89
2022/08/10 04:23:46;;;;;;;;;;;;;;;;;;5095812;28;20003;-87
2022/08/10 04:26:11;;;;;;;;;;;;;;;;;;5095521;28;19950;-89
2022/08/10 04:28:37;;;;;;;;;;;;;;;;;;5112818;28;20297;-88
2022/08/10 04:31:03;;;;;;;;;;;;;;;;;;5112599;28;19916;-88
2022/08/10 04:33:28;;;;;;;;;;;;;;;;;;5117905;28;19904;-88
2022/08/10 04:35:53;;;;;;;;;;;;;;;;;;5100735;28;19920;-90
2022/08/10 04:38:19;;;;;;;;;;;;;;;;;;5112416;28;19916;-86
2022/08/10 04:40:44;;;;;;;;;;;;;;;;;;5112291;28;19916;-86
2022/08/10 04:43:09;;;;;;;;;;;;;;;;;;5096471;28;20014;-86
2022/08/10 04:45:35;;;;;;;;;;;;;;;;;;5096246;28;20007;-86
2022/08/10 04:48:00;;;;;;;;;;;;;;;;;;5112452;28;19924;-85
2022/08/10 04:50:26;;;;;;;;;;;;;;;;;;5094966;28;20265;-87
2022/08/10 04:52:51;;;;;;;;;;;;;;;;;;5096252;28;19919;-88
2022/08/10 04:55:17;;;;;;;;;;;;;;;;;;5108319;28;20309;-88
2022/08/10 04:57:42;;;;;;;;;;;;;;;;;;5097344;28;19916;-90
2022/08/10 05:00:08;;;;;;;;;;;;;;;;;;5111899;28;19923;-87
2022/08/10 05:02:33;;;;;;;;;;;;;;;;;;5096532;28;19972;-86
2022/08/10 05:04:58;;;;;;;;;;;;;;;;;;5095909;28;20384;-86
2022/08/10 05:07:24;;;;;;;;;;;;;;;;;;5096660;28;19916;-86
2022/08/10 05:09:49;;;;;;;;;;;;;;;;;;5095918;28;20061;-86
2022/08/10 05:12:15;;;;;;;;;;;;;;;;;;5096012;28;19985;-86
2022/08/10 05:14:40;;;;;;;;;;;;;;;;;;5116126;28;19923;-84
2022/08/10 05:17:05;;;;;;;;;;;;;;;;;;5095674;28;20023;-83
2022/08/10 05:19:30;;;;;;;;;;;;;;;;;;5095859;28;19920;-87
2022/08/10 05:21:56;;;;;;;;;;;;;;;;;;5095649;28;19916;-87
2022/08/10 05:24:21;;;;;;;;;;;;;;;;;;5095817;28;19918;-86
2022/08/10 05:26:46;;;;;;;;;;;;;;;;;;5095914;28;20291;-86
2022/08/10 05:29:12;;;;;;;;;;;;;;;;;;5094067;28;20303;-87
2022/08/10 05:31:37;;;;;;;;;;;;;;;;;;5111592;28;19961;-87
2022/08/10 05:34:02;;;;;;;;;;;;;;;;;;5095956;28;20241;-85
2022/08/10 05:36:28;;;;;;;;;;;;;;;;;;5105268;28;19920;-86
2022/08/10 05:38:53;;;;;;;;;;;;;;;;;;5095360;28;19916;-87
2022/08/10 05:41:18;;;;;;;;;;;;;;;;;;5095404;28;19916;-88
2022/08/10 05:43:44;;;;;;;;;;;;;;;;;;5095240;28;19916;-86
2022/08/10 05:46:09;;;;;;;;;;;;;;;;;;5094221;28;19927;-85
2022/08/10 05:48:35;;;;;;;;;;;;;;;;;;5110849;28;19924;-84
2022/08/10 05:51:00;;;;;;;;;;;;;;;;;;5094034;28;19923;-84
2022/08/10 05:53:28;;;;;;;;;;;;;;;;;;5094553;28;20392;-84
2022/08/10 05:55:53;;;;;;;;;;;;;;;;;;5117724;28;19960;-84
2022/08/10 05:58:18;;;;;;;;;;;;;;;;;;5116853;28;19920;-85
2022/08/10 06:00:45;;;;;;;;;;;;;;;;;;5095603;28;19916;-84
2022/08/10 06:03:11;;;;;;;;;;;;;;;;;;5095498;28;20007;-82
2022/08/10 06:05:38;;;;;;;;;;;;;;;;;;5111130;28;19923;-80
2022/08/10 06:08:16;;;;;;;;;;;;;;;;;;5111005;28;19945;-80
2022/08/10 06:10:43;;;;;;;;;;;;;;;;;;5110842;28;19912;-80
2022/08/10 06:15:52;;;;;;;;;;;;;;;;;;5095872;28;19923;-80
2022/08/10 06:18:18;;;;;;;;;;;;;;;;;;5095028;28;19916;-82
2022/08/10 06:20:43;;;;;;;;;;;;;;;;;;5092919;28;19916;-82
2022/08/10 06:23:08;;;;;;;;;;;;;;;;;;5110536;28;19916;-82
2022/08/10 06:25:34;;;;;;;;;;;;;;;;;;5110917;28;20563;-82
2022/08/10 06:27:59;;;;;;;;;;;;;;;;;;5110946;28;19916;-82
2022/08/10 06:30:25;;;;;;;;;;;;;;;;;;5094563;28;19916;-81
2022/08/10 06:32:51;;;;;;;;;;;;;;;;;;5095801;28;19969;-82
2022/08/10 06:35:17;;;;;;;;;;;;;;;;;;5117821;28;19920;-82
2022/08/10 06:37:42;;;;;;;;;;;;;;;;;;5097483;28;19920;-82
2022/08/10 06:40:08;;;;;;;;;;;;;;;;;;5110447;28;19916;-81
2022/08/10 06:42:34;;;;;;;;;;;;;;;;;;5095118;28;20223;-83
2022/08/10 06:45:02;;;;;;;;;;;;;;;;;;5109960;28;20397;-84
2022/08/10 06:47:30;;;;;;;;;;;;;;;;;;5094904;28;20073;-83
2022/08/10 06:49:58;;;;;;;;;;;;;;;;;;5110628;28;19920;-83
2022/08/10 06:52:23;;;;;;;;;;;;;;;;;;5110411;28;19919;-82
2022/08/10 06:54:49;;;;;;;;;;;;;;;;;;5094889;28;19916;-83
2022/08/10 06:57:14;;;;;;;;;;;;;;;;;;5115693;28;19916;-83
2022/08/10 06:59:48;;;;;;;;;;;;;;;;;;5098395;28;19917;-82
2022/08/10 07:02:14;;;;;;;;;;;;;;;;;;5094788;28;19920;-83
2022/08/10 07:05:12;;;;;;;;;;;;;;;;;;5110694;28;20398;-82
2022/08/10 07:07:38;;;;;;;;;;;;;;;;;;5059997;28;19916;-84
2022/08/10 07:10:03;;;;;;;;;;;;;;;;;;5109923;28;19989;-81
2022/08/10 07:12:29;;;;;;;;;;;;;;;;;;5094530;28;20449;-83
2022/08/10 07:14:55;;;;;;;;;;;;;;;;;;5110127;28;19978;-84
2022/08/10 07:17:23;;;;;;;;;;;;;;;;;;5116386;28;19920;-83
2022/08/10 07:19:50;;;;;;;;;;;;;;;;;;5110469;28;19988;-80
2022/08/10 07:22:15;;;;;;;;;;;;;;;;;;5109960;28;20286;-82
2022/08/10 07:24:41;;;;;;;;;;;;;;;;;;5110285;28;19923;-82
2022/08/10 07:27:06;;;;;;;;;;;;;;;;;;5094350;28;19923;-81
2022/08/10 07:29:31;;;;;;;;;;;;;;;;;;5110449;28;19952;-82
2022/08/10 07:31:57;;;;;;;;;;;;;;;;;;5110950;28;20362;-82
2022/08/10 07:34:23;;;;;;;;;;;;;;;;;;5115190;28;19916;-82
2022/08/10 07:36:50;;;;;;;;;;;;;;;;;;5114926;28;20254;-80
2022/08/10 07:39:16;;;;;;;;;;;;;;;;;;5117750;28;19917;-82
2022/08/10 07:41:41;;;;;;;;;;;;;;;;;;5113772;28;19923;-82
2022/08/10 07:44:08;;;;;;;;;;;;;;;;;;5113422;28;20390;-82
2022/08/10 07:46:33;;;;;;;;;;;;;;;;;;5097512;28;19924;-82
2022/08/10 07:49:14;;;;;;;;;;;;;;;;;;5113441;28;19916;-82
2022/08/10 07:51:39;;;;;;;;;;;;;;;;;;5113103;28;19938;-82
2022/08/10 07:54:05;;;;;;;;;;;;;;;;;;5113792;28;19916;-82
2022/08/10 07:56:30;;;;;;;;;;;;;;;;;;5098798;28;19916;-82
2022/08/10 07:59:00;;;;;;;;;;;;;;;;;;5117580;28;19916;-82
2022/08/10 08:01:27;;;;;;;;;;;;;;;;;;5113080;28;19916;-81
2022/08/10 08:03:52;;;;;;;;;;;;;;;;;;5096361;28;19951;-82
2022/08/10 08:06:17;;;;;;;;;;;;;;;;;;5113973;28;19923;-82
2022/08/10 08:08:43;;;;;;;;;;;;;;;;;;5096685;28;19919;-82
2022/08/10 08:11:08;;;;;;;;;;;;;;;;;;5112828;28;19951;-83
2022/08/10 08:13:34;;;;;;;;;;;;;;;;;;5114502;28;20250;-82
2022/08/10 08:16:03;;;;;;;;;;;;;;;;;;5096704;28;19916;-81
2022/08/10 08:18:28;;;;;;;;;;;;;;;;;;5100665;28;19939;-81
2022/08/10 08:20:53;;;;;;;;;;;;;;;;;;5102007;28;20318;-81
2022/08/10 08:23:19;;;;;;;;;;;;;;;;;;5112639;28;19916;-83
2022/08/10 08:25:44;;;;;;;;;;;;;;;;;;5097336;28;19924;-82
2022/08/10 08:28:09;;;;;;;;;;;;;;;;;;5112578;28;19912;-82
2022/08/10 08:30:35;;;;;;;;;;;;;;;;;;5097439;28;19972;-82
2022/08/10 08:33:11;;;;;;;;;;;;;;;;;;5112856;28;19916;-84
2022/08/10 08:35:37;;;;;;;;;;;;;;;;;;5111294;28;19912;-83
2022/08/10 08:38:02;;;;;;;;;;;;;;;;;;5112670;28;20368;-82
2022/08/10 08:40:29;;;;;;;;;;;;;;;;;;5124423;28;19919;-81
2022/08/10 08:43:00;;;;;;;;;;;;;;;;;;5112823;28;19923;-82
2022/08/10 08:45:44;;;;;;;;;;;;;;;;;;5096145;28;19920;-82
2022/08/10 08:48:18;;;;;;;;;;;;;;;;;;5096690;28;19920;-81
2022/08/10 08:50:48;;;;;;;;;;;;;;;;;;5096591;28;20290;-82
2022/08/10 08:53:26;;;;;;;;;;;;;;;;;;5112483;28;19923;-82
2022/08/10 08:55:57;;;;;;;;;;;;;;;;;;5112027;28;19920;-82
2022/08/10 08:58:41;;;;;;;;;;;;;;;;;;5096262;28;19924;-81
2022/08/10 09:01:22;;;;;;;;;;;;;;;;;;5105615;28;19916;-82
2022/08/10 09:03:53;;;;;;;;;;;;;;;;;;5096269;28;20326;-82
2022/08/10 09:06:18;;;;;;;;;;;;;;;;;;5111883;28;19916;-82
2022/08/10 09:09:02;;;;;;;;;;;;;;;;;;5096264;28;19916;-82
2022/08/10 09:11:34;;;;;;;;;;;;;;;;;;5096150;28;20329;-82
2022/08/10 09:14:11;;;;;;;;;;;;;;;;;;5096191;28;19916;-82
2022/08/10 09:16:36;;;;;;;;;;;;;;;;;;5096009;28;20015;-82
2022/08/10 09:19:21;;;;;;;;;;;;;;;;;;5096035;28;19958;-81
2022/08/10 09:22:02;;;;;;;;;;;;;;;;;;5121749;28;19967;-82
2022/08/10 09:24:46;;;;;;;;;;;;;;;;;;5096121;28;19965;-80
2022/08/10 09:27:18;;;;;;;;;;;;;;;;;;5095817;28;20317;-82
2022/08/10 09:29:45;;;;;;;;;;;;;;;;;;5112990;28;19916;-81
2022/08/10 09:32:13;;;;;;;;;;;;;;;;;;5096100;28;20112;-83
2022/08/10 09:35:01;;;;;;;;;;;;;;;;;;5111569;28;19916;-82
2022/08/10 09:37:45;;;;;;;;;;;;;;;;;;5095839;28;20010;-82
2022/08/10 09:40:30;;;;;;;;;;;;;;;;;;5095846;28;19916;-83
2022/08/10 09:43:00;;;;;;;;;;;;;;;;;;5121477;28;20271;-81
2022/08/10 09:45:31;;;;;;;;;;;;;;;;;;5115910;28;20386;-82
2022/08/10 09:48:15;;;;;;;;;;;;;;;;;;5095645;28;19916;-82
2022/08/10 09:50:46;;;;;;;;;;;;;;;;;;5094911;28;20344;-82
2022/08/10 09:53:27;;;;;;;;;;;;;;;;;;5095253;28;19916;-82
2022/08/10 09:55:55;;;;;;;;;;;;;;;;;;5095175;28;19916;-81
2022/08/10 09:58:26;;;;;;;;;;;;;;;;;;5110824;28;19923;-81
2022/08/10 10:01:12;;;;;;;;;;;;;;;;;;5093996;28;20293;-83
2022/08/10 10:04:06;;;;;;;;;;;;;;;;;;5099033;28;20360;-81
2022/08/10 10:06:35;;;;;;;;;;;;;;;;;;5082602;28;19916;-82
2022/08/10 10:09:04;;;;;;;;;;;;;;;;;;5095289;28;19916;-82
2022/08/10 10:11:34;;;;;;;;;;;;;;;;;;5095141;28;19916;-82
2022/08/10 10:13:59;;;;;;;;;;;;;;;;;;5095113;28;20331;-82
2022/08/10 10:16:27;;;;;;;;;;;;;;;;;;5094930;28;20007;-82
2022/08/10 10:18:52;;;;;;;;;;;;;;;;;;5093550;28;19955;-82
2022/08/10 10:21:36;;;;;;;;;;;;;;;;;;5110716;28;19974;-83
2022/08/10 10:24:02;;;;;;;;;;;;;;;;;;5098389;28;20250;-82
2022/08/10 10:26:33;;;;;;;;;;;;;;;;;;5094906;28;19912;-83
2022/08/10 10:29:01;;;;;;;;;;;;;;;;;;5110922;28;19970;-82
2022/08/10 10:31:27;;;;;;;;;;;;;;;;;;5094844;28;19995;-82
2022/08/10 10:33:56;;;;;;;;;;;;;;;;;;5110016;28;19912;-82
2022/08/10 10:36:22;;;;;;;;;;;;;;;;;;5110251;28;19924;-82
2022/08/10 10:38:47;;;;;;;;;;;;;;;;;;5095112;28;20030;-82
2022/08/10 10:41:15;;;;;;;;;;;;;;;;;;5094830;28;19928;-82
2022/08/10 10:43:43;;;;;;;;;;;;;;;;;;5097072;28;19920;-81
2022/08/10 10:46:18;;;;;;;;;;;;;;;;;;5096923;28;19920;-82
2022/08/10 10:48:50;;;;;;;;;;;;;;;;;;5110551;28;19989;-82
2022/08/10 10:51:17;;;;;;;;;;;;;;;;;;5110225;28;20315;-82
2022/08/10 10:53:52;;;;;;;;;;;;;;;;;;5110423;28;19923;-82
2022/08/10 10:56:29;;;;;;;;;;;;;;;;;;5094816;28;19916;-82
2022/08/10 10:59:14;;;;;;;;;;;;;;;;;;5094536;28;19965;-81
2022/08/10 11:01:40;;;;;;;;;;;;;;;;;;5093989;28;20318;-81
2022/08/10 11:04:26;;;;;;;;;;;;;;;;;;5095375;28;19916;-81
2022/08/10 11:06:56;;;;;;;;;;;;;;;;;;5117269;28;19912;-82
2022/08/10 11:09:37;;;;;;;;;;;;;;;;;;5114505;28;19923;-82
2022/08/10 11:12:08;;;;;;;;;;;;;;;;;;5113914;28;19916;-81
2022/08/10 11:14:36;;;;;;;;;;;;;;;;;;5113898;28;19916;-81
2022/08/10 11:17:10;;;;;;;;;;;;;;;;;;5113693;28;19923;-82
2022/08/10 11:19:35;;;;;;;;;;;;;;;;;;5114303;28;20007;-82
2022/08/10 11:22:06;;;;;;;;;;;;;;;;;;5098257;28;19954;-82
2022/08/10 11:24:32;;;;;;;;;;;;;;;;;;5098252;28;19916;-81
2022/08/10 11:27:01;;;;;;;;;;;;;;;;;;5101494;28;20390;-84
2022/08/10 11:29:46;;;;;;;;;;;;;;;;;;5113732;28;19972;-83
2022/08/10 11:32:16;;;;;;;;;;;;;;;;;;5095756;28;19970;-82
2022/08/10 11:34:44;;;;;;;;;;;;;;;;;;5097928;28;20014;-82
2022/08/10 11:37:09;;;;;;;;;;;;;;;;;;5097523;28;19916;-82
2022/08/10 11:39:53;;;;;;;;;;;;;;;;;;5098116;28;19917;-82
2022/08/10 11:42:38;;;;;;;;;;;;;;;;;;5097881;28;19920;-82
2022/08/10 11:45:06;;;;;;;;;;;;;;;;;;5114740;28;19920;-82
2022/08/10 11:47:37;;;;;;;;;;;;;;;;;;5109171;28;19967;-81
2022/08/10 11:50:07;;;;;;;;;;;;;;;;;;5114283;28;20015;-81
2022/08/10 11:52:50;;;;;;;;;;;;;;;;;;5097594;28;20049;-82
2022/08/10 11:55:20;;;;;;;;;;;;;;;;;;5113407;28;19923;-81
2022/08/10 11:57:46;;;;;;;;;;;;;;;;;;5113117;28;19916;-83
2022/08/10 12:00:11;;;;;;;;;;;;;;;;;;5097294;28;19923;-82
2022/08/10 12:02:36;;;;;;;;;;;;;;;;;;5113005;28;20341;-82
2022/08/10 12:05:08;;;;;;;;;;;;;;;;;;5097450;28;20326;-82
2022/08/10 12:07:33;;;;;;;;;;;;;;;;;;5097412;28;19981;-83
2022/08/10 12:09:59;;;;;;;;;;;;;;;;;;5118657;28;20322;-84
2022/08/10 12:12:25;;;;;;;;;;;;;;;;;;5112704;28;20321;-83
2022/08/10 12:14:56;;;;;;;;;;;;;;;;;;5112657;28;19969;-83
2022/08/10 12:17:23;;;;;;;;;;;;;;;;;;5112897;28;19920;-82
2022/08/10 12:20:07;;;;;;;;;;;;;;;;;;5111741;28;19954;-83
2022/08/10 12:22:34;;;;;;;;;;;;;;;;;;5095903;28;19928;-83
2022/08/10 12:25:03;;;;;;;;;;;;;;;;;;5112629;28;20270;-82
2022/08/10 12:27:31;;;;;;;;;;;;;;;;;;5112817;28;19916;-83
2022/08/10 12:30:09;;;;;;;;;;;;;;;;;;5102646;28;19916;-82
2022/08/10 12:32:51;;;;;;;;;;;;;;;;;;5112809;28;20592;-82
2022/08/10 12:35:38;;;;;;;;;;;;;;;;;;5115915;28;19966;-82
2022/08/10 12:38:09;;;;;;;;;;;;;;;;;;5113489;28;19916;-82
2022/08/10 12:40:55;;;;;;;;;;;;;;;;;;5099194;28;19916;-81
2022/08/10 12:43:21;;;;;;;;;;;;;;;;;;5097026;28;19930;-88
2022/08/10 12:46:22;;;;;;;;;;;;;;;;;;5112170;28;19985;-89
2022/08/10 12:48:50;;;;;;;;;;;;;;;;;;5042186;28;19917;-86
2022/08/10 12:51:18;;;;;;;;;;;;;;;;;;5091780;28;19916;-87
2022/08/10 12:54:13;;;;;;;;;;;;;;;;;;5096869;28;19935;-89
2022/08/10 12:56:42;;;;;;;;;;;;;;;;;;5083180;28;19916;-89
2022/08/10 12:59:08;;;;;;;;;;;;;;;;;;5096229;28;19923;-88
2022/08/10 13:01:35;;;;;;;;;;;;;;;;;;5112174;28;19916;-89
2022/08/10 13:04:05;;;;;;;;;;;;;;;;;;5112007;28;19982;-87
2022/08/10 13:06:30;;;;;;;;;;;;;;;;;;5096305;28;20010;-89
2022/08/10 13:09:08;;;;;;;;;;;;;;;;;;5112485;28;19958;-88
2022/08/10 13:11:35;;;;;;;;;;;;;;;;;;5116822;28;19920;-88
2022/08/10 13:14:02;;;;;;;;;;;;;;;;;;5111841;28;19935;-87
2022/08/10 13:16:28;;;;;;;;;;;;;;;;;;5094850;28;20338;-88
2022/08/10 13:18:53;;;;;;;;;;;;;;;;;;5111888;28;19916;-88
2022/08/10 13:21:18;;;;;;;;;;;;;;;;;;5096069;28;19939;-90
2022/08/10 13:23:54;;;;;;;;;;;;;;;;;;5112189;28;20250;-88
2022/08/10 13:26:21;;;;;;;;;;;;;;;;;;5111462;28;20065;-89
2022/08/10 13:28:47;;;;;;;;;;;;;;;;;;5111144;28;20018;-89
2022/08/10 13:31:17;;;;;;;;;;;;;;;;;;5118167;28;19955;-87
2022/08/10 13:33:50;;;;;;;;;;;;;;;;;;5115152;28;20227;-87
2022/08/10 13:36:19;;;;;;;;;;;;;;;;;;5111695;28;19916;-89
2022/08/10 13:38:47;;;;;;;;;;;;;;;;;;5111756;28;19965;-86
2022/08/10 13:41:12;;;;;;;;;;;;;;;;;;5094320;28;19916;-87
2022/08/10 13:43:47;;;;;;;;;;;;;;;;;;5111674;28;19994;-88
2022/08/10 13:46:13;;;;;;;;;;;;;;;;;;5111280;28;19927;-88
2022/08/10 13:48:38;;;;;;;;;;;;;;;;;;5095845;28;20242;-86
2022/08/10 13:51:04;;;;;;;;;;;;;;;;;;5101403;28;19908;-87
2022/08/10 13:53:29;;;;;;;;;;;;;;;;;;5121595;28;19931;-87
2022/08/10 13:55:55;;;;;;;;;;;;;;;;;;5110867;28;19916;-87
2022/08/10 13:58:21;;;;;;;;;;;;;;;;;;5094122;28;20053;-88
2022/08/10 14:00:46;;;;;;;;;;;;;;;;;;5111089;28;19916;-87
2022/08/10 14:03:15;;;;;;;;;;;;;;;;;;5110936;28;19938;-89
2022/08/10 14:05:48;;;;;;;;;;;;;;;;;;5111140;28;20284;-87
2022/08/10 14:08:14;;;;;;;;;;;;;;;;;;5111229;28;19916;-87
2022/08/10 14:10:40;;;;;;;;;;;;;;;;;;5111158;28;19942;-87
2022/08/10 14:13:05;;;;;;;;;;;;;;;;;;5102519;28;19920;-87
2022/08/10 14:15:31;;;;;;;;;;;;;;;;;;5110937;28;20246;-88
2022/08/10 14:17:56;;;;;;;;;;;;;;;;;;5110792;28;19916;-87
2022/08/10 14:20:25;;;;;;;;;;;;;;;;;;5110870;28;20297;-89
2022/08/10 14:22:50;;;;;;;;;;;;;;;;;;5095405;28;20245;-86
2022/08/10 14:25:16;;;;;;;;;;;;;;;;;;5110284;28;19922;-89
2022/08/10 14:27:42;;;;;;;;;;;;;;;;;;5094918;28;20386;-92
2022/08/10 14:30:08;;;;;;;;;;;;;;;;;;5095323;28;19974;-88
2022/08/10 14:32:39;;;;;;;;;;;;;;;;;;5098127;28;20393;-84
2022/08/10 14:35:05;;;;;;;;;;;;;;;;;;5102052;28;19924;-87
2022/08/10 14:37:33;;;;;;;;;;;;;;;;;;5110397;28;20008;-87
2022/08/10 14:40:02;;;;;;;;;;;;;;;;;;5109891;28;19969;-87
2022/08/10 14:42:34;;;;;;;;;;;;;;;;;;5112993;28;19916;-90
2022/08/10 14:45:32;;;;;;;;;;;;;;;;;;5114420;28;20007;-87
2022/08/10 14:47:58;;;;;;;;;;;;;;;;;;5064789;28;19916;-87
2022/08/10 14:50:24;;;;;;;;;;;;;;;;;;5114956;28;20296;-88
2022/08/10 14:52:49;;;;;;;;;;;;;;;;;;5097654;28;19916;-86
2022/08/10 14:55:14;;;;;;;;;;;;;;;;;;5103138;28;19930;-86
2022/08/10 14:57:40;;;;;;;;;;;;;;;;;;5114624;28;20211;-86
2022/08/10 15:00:06;;;;;;;;;;;;;;;;;;5114590;28;19969;-87
2022/08/10 15:02:38;;;;;;;;;;;;;;;;;;5098989;28;19920;-86
2022/08/10 15:05:04;;;;;;;;;;;;;;;;;;5097690;28;19968;-86
2022/08/10 15:07:32;;;;;;;;;;;;;;;;;;5114335;28;19916;-87
2022/08/10 15:09:57;;;;;;;;;;;;;;;;;;5098621;28;19916;-88
2022/08/10 15:12:22;;;;;;;;;;;;;;;;;;5097275;28;20349;-88
2022/08/10 15:14:48;;;;;;;;;;;;;;;;;;5104966;28;19916;-85
2022/08/10 15:17:32;;;;;;;;;;;;;;;;;;5118025;28;20397;-88
2022/08/10 15:19:58;;;;;;;;;;;;;;;;;;5114631;28;19916;-90
2022/08/10 15:22:24;;;;;;;;;;;;;;;;;;5098740;28;19946;-89
2022/08/10 15:25:04;;;;;;;;;;;;;;;;;;5114642;28;19916;-91
2022/08/10 15:27:38;;;;;;;;;;;;;;;;;;5113575;28;19958;-88
2022/08/10 15:30:03;;;;;;;;;;;;;;;;;;5104166;28;19916;-89
2022/08/10 15:38:08;;;;;;;;;;;;;;;;;;5125680;28;19927;-88
2022/08/10 15:40:36;;;;;;;;;;;;;;;;;;5121144;28;19916;-90
2022/08/10 15:43:03;;;;;;;;;;;;;;;;;;5102659;28;19912;-90
2022/08/10 15:45:28;;;;;;;;;;;;;;;;;;5120198;28;19920;-90
2022/08/10 15:47:54;;;;;;;;;;;;;;;;;;5117456;28;20235;-88
2022/08/10 15:50:24;;;;;;;;;;;;;;;;;;5115753;28;19952;-90
2022/08/10 15:52:52;;;;;;;;;;;;;;;;;;5100130;28;20003;-86
2022/08/10 15:55:18;;;;;;;;;;;;;;;;;;5098097;28;19916;-89
2022/08/10 15:57:46;;;;;;;;;;;;;;;;;;5130394;28;19920;-90
2022/08/10 16:00:15;;;;;;;;;;;;;;;;;;5118487;28;19923;-87
2022/08/10 16:02:51;;;;;;;;;;;;;;;;;;5098294;28;20028;-91
2022/08/10 16:05:36;;;;;;;;;;;;;;;;;;5113567;28;20322;-89
2022/08/10 16:08:02;;;;;;;;;;;;;;;;;;5086361;28;19928;-91
2022/08/10 16:10:29;;;;;;;;;;;;;;;;;;5097770;28;19916;-91
2022/08/10 16:12:58;;;;;;;;;;;;;;;;;;5113300;28;19916;-88
2022/08/10 16:15:24;;;;;;;;;;;;;;;;;;5113238;28;19924;-87
2022/08/10 16:17:50;;;;;;;;;;;;;;;;;;5123967;28;19912;-88
2022/08/10 16:20:19;;;;;;;;;;;;;;;;;;5120451;28;19920;-86
2022/08/10 16:22:44;;;;;;;;;;;;;;;;;;5112832;28;20289;-88
2022/08/10 16:25:13;;;;;;;;;;;;;;;;;;5113036;28;19926;-87
2022/08/10 16:27:38;;;;;;;;;;;;;;;;;;5095854;28;20321;-89
2022/08/10 16:30:05;;;;;;;;;;;;;;;;;;5096907;28;19918;-89
2022/08/10 16:32:31;;;;;;;;;;;;;;;;;;5112666;28;20307;-88
2022/08/10 16:34:57;;;;;;;;;;;;;;;;;;5113103;28;19912;-88
2022/08/10 16:37:22;;;;;;;;;;;;;;;;;;5097499;28;19916;-88
2022/08/10 16:39:54;;;;;;;;;;;;;;;;;;5120680;28;19972;-87
2022/08/10 16:42:20;;;;;;;;;;;;;;;;;;5097304;28;19916;-87
2022/08/10 16:44:52;;;;;;;;;;;;;;;;;;5096638;28;19920;-87
2022/08/10 16:47:18;;;;;;;;;;;;;;;;;;5112500;28;19916;-90
2022/08/10 16:49:43;;;;;;;;;;;;;;;;;;5112591;28;19924;-87
2022/08/10 16:52:08;;;;;;;;;;;;;;;;;;5095288;28;19916;-89
2022/08/10 16:54:34;;;;;;;;;;;;;;;;;;5112752;28;19916;-86
2022/08/10 16:57:02;;;;;;;;;;;;;;;;;;5111999;28;19916;-86
2022/08/10 16:59:29;;;;;;;;;;;;;;;;;;5118278;28;19908;-86
2022/08/10 17:01:54;;;;;;;;;;;;;;;;;;5096399;28;19978;-86
2022/08/10 17:04:20;;;;;;;;;;;;;;;;;;5111312;28;19920;-85